createdAt,value
2019-02-16T00:00:02.104Z,21.23
2019-02-16T00:02:30.305Z,21.45
2019-02-16T00:04:56.729Z,20.08
2019-02-16T00:07:23.028Z,18.05
2019-02-16T00:10:09.177Z,19.50
2019-02-16T00:12:35.565Z,19.25
2019-02-16T00:15:03.299Z,21.35
2019-02-16T00:17:29.641Z,24.60
2019-02-16T00:19:56.057Z,20.45
2019-02-16T00:22:22.346Z,23.57
2019-02-16T00:24:48.664Z,19.62
2019-02-16T00:27:14.951Z,14.38
2019-02-16T00:29:41.466Z,17.30
2019-02-16T00:32:07.855Z,15.80
2019-02-16T00:34:34.246Z,13.60
2019-02-16T00:37:00.545Z,16.20
2019-02-16T00:39:26.811Z,15.03
2019-02-16T00:41:53.075Z,16.85
2019-02-16T00:44:19.472Z,15.35
2019-02-16T00:46:45.748Z,13.55
2019-02-16T00:49:12.174Z,14.18
2019-02-16T00:51:38.447Z,14.33
2019-02-16T00:54:04.864Z,13.53
2019-02-16T00:56:31.153Z,13.98
2019-02-16T00:58:57.616Z,13.48
2019-02-16T01:01:24.134Z,14.23
2019-02-16T01:03:50.524Z,12.58
2019-02-16T01:06:17.037Z,14.73
2019-02-16T01:08:43.434Z,13.45
2019-02-16T01:11:09.827Z,13.48
2019-02-16T01:13:36.346Z,14.28
2019-02-16T01:16:02.742Z,15.08
2019-02-16T01:18:29.180Z,17.67
2019-02-16T01:20:55.643Z,14.38
2019-02-16T01:23:21.921Z,13.45
2019-02-16T01:25:48.367Z,11.48
2019-02-16T01:28:14.861Z,15.32
2019-02-16T01:30:41.171Z,11.48
2019-02-16T01:33:07.604Z,12.03
2019-02-16T01:35:34.037Z,12.07
2019-02-16T01:38:00.325Z,12.50
2019-02-16T01:40:26.741Z,12.18
2019-02-16T01:42:53.149Z,13.32
2019-02-16T01:45:19.587Z,10.35
2019-02-16T01:47:45.994Z,13.78
2019-02-16T01:50:12.432Z,12.45
2019-02-16T01:52:38.736Z,11.25
2019-02-16T01:55:07.229Z,14.55
2019-02-16T01:57:33.738Z,14.28
2019-02-16T02:00:00.006Z,12.13
2019-02-16T02:02:26.376Z,14.70
2019-02-16T02:04:53.119Z,10.93
2019-02-16T02:07:19.412Z,12.15
2019-02-16T02:09:45.800Z,12.13
2019-02-16T02:12:12.405Z,12.55
2019-02-16T02:14:38.945Z,12.00
2019-02-16T02:17:05.324Z,9.63
2019-02-16T02:19:31.742Z,8.90
2019-02-16T02:21:58.167Z,10.53
2019-02-16T02:24:24.492Z,13.13
2019-02-16T02:26:50.874Z,11.38
2019-02-16T02:29:17.167Z,12.00
2019-02-16T02:31:43.512Z,10.50
2019-02-16T02:34:09.787Z,12.05
2019-02-16T02:36:36.032Z,10.78
2019-02-16T02:39:03.890Z,10.65
2019-02-16T02:41:30.138Z,12.23
2019-02-16T02:43:56.464Z,12.25
2019-02-16T02:46:22.969Z,16.55
2019-02-16T02:48:49.336Z,13.08
2019-02-16T02:51:15.776Z,11.88
2019-02-16T02:53:42.207Z,10.60
2019-02-16T02:56:08.624Z,11.33
2019-02-16T02:58:34.920Z,15.08
2019-02-16T03:01:01.340Z,10.60
2019-02-16T03:03:27.817Z,10.50
2019-02-16T03:05:54.240Z,13.15
2019-02-16T03:08:20.640Z,13.13
2019-02-16T03:10:46.951Z,15.58
2019-02-16T03:13:13.380Z,11.68
2019-02-16T03:15:39.803Z,13.20
2019-02-16T03:18:06.250Z,9.43
2019-02-16T03:20:32.643Z,10.58
2019-02-16T03:23:15.940Z,10.30
2019-02-16T03:26:02.341Z,10.82
2019-02-16T03:28:32.494Z,13.25
2019-02-16T03:31:14.871Z,10.82
2019-02-16T03:34:00.062Z,11.33
2019-02-16T03:36:38.737Z,10.10
2019-02-16T03:39:08.387Z,10.20
2019-02-16T03:41:34.775Z,11.28
2019-02-16T03:44:01.252Z,11.53
2019-02-16T03:46:27.668Z,10.30
2019-02-16T03:48:53.956Z,9.30
2019-02-16T03:51:20.377Z,9.53
2019-02-16T03:53:46.700Z,9.00
2019-02-16T03:56:13.095Z,11.15
2019-02-16T03:58:39.432Z,8.10
2019-02-16T04:01:05.821Z,9.28
2019-02-16T04:03:32.207Z,7.67
2019-02-16T04:05:58.677Z,8.23
2019-02-16T04:08:25.078Z,8.13
2019-02-16T04:10:51.341Z,9.75
2019-02-16T04:13:17.632Z,10.03
2019-02-16T04:15:44.089Z,11.08
2019-02-16T04:18:10.397Z,8.43
2019-02-16T04:20:36.786Z,8.80
2019-02-16T04:23:03.207Z,8.38
2019-02-16T04:25:29.599Z,10.20
2019-02-16T04:27:55.949Z,6.40
2019-02-16T04:30:22.344Z,7.72
2019-02-16T04:32:48.757Z,8.33
2019-02-16T04:35:15.027Z,8.10
2019-02-16T04:37:41.453Z,7.85
2019-02-16T04:40:07.960Z,8.68
2019-02-16T04:42:34.324Z,10.05
2019-02-16T04:45:00.732Z,12.15
2019-02-16T04:47:27.248Z,10.82
2019-02-16T04:49:53.674Z,9.23
2019-02-16T04:52:19.963Z,11.25
2019-02-16T04:54:46.377Z,12.05
2019-02-16T04:57:12.819Z,8.40
2019-02-16T04:59:39.097Z,10.23
2019-02-16T05:02:05.501Z,8.90
2019-02-16T05:04:31.793Z,10.65
2019-02-16T05:06:58.223Z,10.30
2019-02-16T05:09:24.565Z,14.58
2019-02-16T05:11:50.865Z,8.45
2019-02-16T05:14:17.286Z,9.45
2019-02-16T05:16:43.724Z,9.23
2019-02-16T05:19:10.166Z,10.80
2019-02-16T05:21:36.659Z,9.93
2019-02-16T05:24:03.162Z,10.13
2019-02-16T05:26:29.519Z,8.45
2019-02-16T05:28:55.933Z,9.75
2019-02-16T05:31:22.221Z,9.43
2019-02-16T05:33:48.504Z,10.08
2019-02-16T05:36:15.065Z,8.18
2019-02-16T05:38:41.343Z,8.70
2019-02-16T05:41:07.672Z,9.10
2019-02-16T05:43:33.954Z,8.65
2019-02-16T05:46:00.240Z,8.15
2019-02-16T05:48:26.562Z,10.98
2019-02-16T05:50:52.977Z,7.85
2019-02-16T05:53:20.274Z,7.78
2019-02-16T05:55:46.746Z,10.15
2019-02-16T05:58:13.069Z,8.13
2019-02-16T06:00:39.491Z,9.28
2019-02-16T06:03:05.929Z,12.68
2019-02-16T06:05:32.228Z,9.70
2019-02-16T06:07:58.877Z,11.20
2019-02-16T06:10:25.179Z,8.98
2019-02-16T06:12:51.687Z,8.73
2019-02-16T06:15:18.087Z,10.68
2019-02-16T06:17:44.476Z,8.43
2019-02-16T06:20:11.000Z,11.10
2019-02-16T06:22:37.364Z,7.65
2019-02-16T06:25:04.957Z,8.38
2019-02-16T06:27:31.358Z,7.87
2019-02-16T06:29:57.698Z,7.65
2019-02-16T06:32:23.986Z,8.00
2019-02-16T06:34:52.302Z,10.08
2019-02-16T06:37:20.492Z,10.85
2019-02-16T06:39:48.094Z,10.60
2019-02-16T06:42:14.504Z,12.35
2019-02-16T06:44:40.940Z,10.53
2019-02-16T06:47:07.416Z,8.38
2019-02-16T06:49:33.843Z,9.50
2019-02-16T06:52:00.213Z,8.43
2019-02-16T06:54:26.579Z,9.83
2019-02-16T06:57:01.499Z,11.05
2019-02-16T06:59:27.996Z,13.40
2019-02-16T07:01:54.535Z,38.45
2019-02-16T07:04:21.001Z,40.95
2019-02-16T07:06:47.305Z,32.53
2019-02-16T07:09:13.566Z,30.82
2019-02-16T07:11:40.057Z,22.27
2019-02-16T07:14:06.550Z,15.60
2019-02-16T07:16:37.572Z,14.50
2019-02-16T07:19:05.820Z,29.20
2019-02-16T07:21:32.244Z,23.70
2019-02-16T07:23:58.544Z,14.83
2019-02-16T07:26:25.185Z,13.22
2019-02-16T07:28:51.421Z,12.58
2019-02-16T07:31:17.893Z,15.05
2019-02-16T07:33:44.475Z,12.05
2019-02-16T07:36:10.984Z,14.23
2019-02-16T07:38:37.321Z,13.32
2019-02-16T07:41:03.822Z,16.80
2019-02-16T07:43:34.722Z,22.65
2019-02-16T07:46:03.069Z,18.62
2019-02-16T07:48:31.391Z,18.87
2019-02-16T07:50:59.672Z,21.65
2019-02-16T07:53:33.783Z,22.98
2019-02-16T07:56:11.136Z,21.68
2019-02-16T07:58:51.323Z,22.67
2019-02-16T08:01:19.779Z,21.90
2019-02-16T08:03:47.974Z,22.50
2019-02-16T08:06:31.318Z,24.35
2019-02-16T08:08:59.506Z,23.77
2019-02-16T08:11:27.831Z,18.35
2019-02-16T08:13:58.081Z,18.57
2019-02-16T08:16:32.246Z,20.30
2019-02-16T08:19:06.794Z,18.85
2019-02-16T08:21:44.233Z,20.60
2019-02-16T08:24:30.568Z,21.10
2019-02-16T08:26:58.890Z,18.23
2019-02-16T08:29:42.169Z,25.23
2019-02-16T08:32:19.277Z,22.48
2019-02-16T08:34:58.802Z,19.37
2019-02-16T08:37:44.112Z,20.80
2019-02-16T08:40:21.014Z,18.75
2019-02-16T08:42:49.330Z,23.45
2019-02-16T08:45:34.161Z,19.67
2019-02-16T08:48:05.101Z,20.57
2019-02-16T08:50:33.281Z,16.85
2019-02-16T08:53:04.200Z,19.73
2019-02-16T08:55:35.402Z,17.60
2019-02-16T08:58:03.664Z,17.82
2019-02-16T09:00:34.581Z,20.65
2019-02-16T09:03:19.528Z,19.32
2019-02-16T09:05:53.479Z,20.32
2019-02-16T09:08:21.700Z,17.70
2019-02-16T09:10:49.954Z,15.18
2019-02-16T09:13:24.016Z,15.15
2019-02-16T09:15:52.186Z,13.58
2019-02-16T09:18:20.653Z,19.00
2019-02-16T09:21:04.166Z,14.00
2019-02-16T09:23:38.300Z,14.95
2019-02-16T09:26:18.507Z,15.98
2019-02-16T09:29:05.204Z,15.45
2019-02-16T09:31:50.015Z,15.43
2019-02-16T09:34:33.325Z,18.62
2019-02-16T09:37:01.643Z,17.48
2019-02-16T09:39:46.834Z,14.50
2019-02-16T09:42:31.634Z,13.08
2019-02-16T09:45:16.421Z,11.48
2019-02-16T09:47:44.787Z,12.47
2019-02-16T09:50:13.108Z,12.70
2019-02-16T09:52:53.287Z,12.45
2019-02-16T09:55:21.613Z,13.20
2019-02-16T09:58:01.862Z,17.37
2019-02-16T10:00:36.197Z,17.45
2019-02-16T10:03:13.442Z,20.08
2019-02-16T10:05:44.432Z,20.60
2019-02-16T10:08:15.608Z,21.05
2019-02-16T10:10:43.809Z,24.27
2019-02-16T10:13:28.594Z,19.87
2019-02-16T10:15:57.014Z,17.87
2019-02-16T10:18:25.346Z,19.67
2019-02-16T10:21:02.729Z,22.58
2019-02-16T10:23:47.702Z,22.90
2019-02-16T10:26:18.873Z,24.15
2019-02-16T10:28:49.586Z,27.75
2019-02-16T10:31:32.766Z,26.75
2019-02-16T10:34:00.980Z,24.65
2019-02-16T10:36:35.413Z,26.07
2019-02-16T10:39:09.711Z,23.07
2019-02-16T10:41:56.062Z,25.40
2019-02-16T10:44:33.072Z,28.45
2019-02-16T10:47:16.338Z,26.25
2019-02-16T10:49:50.461Z,25.37
2019-02-16T10:52:35.225Z,25.80
2019-02-16T10:55:06.135Z,25.02
2019-02-16T10:57:34.509Z,23.12
2019-02-16T11:00:02.716Z,28.52
2019-02-16T11:02:39.919Z,26.07
2019-02-16T11:05:08.339Z,26.50
2019-02-16T11:07:42.562Z,27.02
2019-02-16T11:10:17.000Z,23.42
2019-02-16T11:13:02.106Z,28.20
2019-02-16T11:15:30.561Z,25.25
2019-02-16T11:18:05.002Z,22.15
2019-02-16T11:20:48.545Z,26.73
2019-02-16T11:23:16.753Z,29.95
2019-02-16T11:25:51.029Z,28.38
2019-02-16T11:28:22.480Z,25.97
2019-02-16T11:30:56.756Z,26.10
2019-02-16T11:33:33.926Z,30.68
2019-02-16T11:36:08.115Z,25.62
2019-02-16T11:38:45.463Z,25.25
2019-02-16T11:41:18.867Z,25.40
2019-02-16T11:43:52.506Z,26.10
2019-02-16T11:46:23.397Z,24.87
2019-02-16T11:48:51.600Z,25.55
2019-02-16T11:51:22.584Z,21.27
2019-02-16T11:54:09.053Z,25.97
2019-02-16T11:56:46.239Z,27.65
2019-02-16T11:59:23.309Z,21.40
2019-02-16T12:01:57.657Z,21.97
2019-02-16T12:04:26.050Z,23.87
2019-02-16T12:07:00.324Z,23.52
2019-02-16T12:09:28.500Z,21.07
2019-02-16T12:12:02.464Z,20.40
2019-02-16T12:14:30.859Z,26.25
2019-02-16T12:17:01.805Z,21.30
2019-02-16T12:19:32.753Z,19.70
2019-02-16T12:22:09.725Z,21.57
2019-02-16T12:24:43.677Z,19.87
2019-02-16T12:27:20.833Z,26.93
2019-02-16T12:29:49.018Z,22.42
2019-02-16T12:32:17.405Z,24.47
2019-02-16T12:34:45.700Z,23.80
2019-02-16T12:37:22.866Z,23.87
2019-02-16T12:39:53.765Z,25.85
2019-02-16T12:42:38.764Z,23.40
2019-02-16T12:45:18.514Z,26.00
2019-02-16T12:47:49.745Z,27.40
2019-02-16T12:50:26.924Z,24.00
2019-02-16T12:52:57.849Z,22.95
2019-02-16T12:55:26.025Z,27.40
2019-02-16T12:57:57.257Z,24.43
2019-02-16T13:00:28.104Z,25.27
2019-02-16T13:02:56.292Z,20.12
2019-02-16T13:05:27.329Z,24.45
2019-02-16T13:07:55.525Z,24.32
2019-02-16T13:10:23.695Z,23.02
2019-02-16T13:12:51.897Z,22.60
2019-02-16T13:15:20.068Z,20.82
2019-02-16T13:18:00.265Z,21.48
2019-02-16T13:20:31.149Z,20.17
2019-02-16T13:23:11.555Z,19.75
2019-02-16T13:25:42.698Z,19.65
2019-02-16T13:28:27.702Z,20.37
2019-02-16T13:31:01.856Z,16.97
2019-02-16T13:33:42.444Z,18.15
2019-02-16T13:36:13.530Z,18.65
2019-02-16T13:38:58.670Z,16.63
2019-02-16T13:41:35.673Z,14.83
2019-02-16T13:44:03.875Z,15.65
2019-02-16T13:46:44.379Z,15.27
2019-02-16T13:49:15.540Z,13.47
2019-02-16T13:51:43.708Z,14.20
2019-02-16T13:54:12.088Z,16.63
2019-02-16T13:56:40.302Z,13.08
2019-02-16T13:59:08.572Z,14.07
2019-02-16T14:01:36.774Z,14.93
2019-02-16T14:04:08.771Z,14.70
2019-02-16T14:06:43.269Z,14.27
2019-02-16T14:09:11.489Z,17.10
2019-02-16T14:11:42.647Z,17.57
2019-02-16T14:14:10.813Z,14.83
2019-02-16T14:16:41.972Z,14.53
2019-02-16T14:19:08.241Z,15.50
2019-02-16T14:21:34.534Z,16.60
2019-02-16T14:24:00.829Z,12.50
2019-02-16T14:26:27.236Z,12.13
2019-02-16T14:28:53.613Z,13.20
2019-02-16T14:31:28.048Z,12.70
2019-02-16T14:33:48.260Z,13.73
2019-02-16T14:36:14.540Z,14.60
2019-02-16T14:38:42.741Z,13.80
2019-02-16T14:41:09.001Z,13.47
2019-02-16T14:43:35.273Z,14.33
2019-02-16T14:46:01.558Z,13.13
2019-02-16T14:48:27.918Z,14.70
2019-02-16T14:50:54.285Z,12.77
2019-02-16T14:53:20.674Z,14.10
2019-02-16T14:55:53.693Z,12.40
2019-02-16T14:58:15.708Z,12.17
2019-02-16T15:00:42.440Z,13.07
2019-02-16T15:03:08.807Z,12.83
2019-02-16T15:05:35.426Z,12.73
2019-02-16T15:08:02.154Z,12.70
2019-02-16T15:10:28.781Z,11.50
2019-02-16T15:12:55.524Z,12.37
2019-02-16T15:15:21.876Z,12.23
2019-02-16T15:17:48.185Z,11.83
2019-02-16T15:20:15.472Z,11.70
2019-02-16T15:22:41.721Z,12.07
2019-02-16T15:25:10.760Z,14.97
2019-02-16T15:27:37.169Z,15.57
2019-02-16T15:30:14.421Z,26.40
2019-02-16T15:32:44.800Z,35.90
2019-02-16T15:35:11.372Z,14.30
2019-02-16T15:37:37.873Z,15.60
2019-02-16T15:40:06.644Z,18.47
2019-02-16T15:42:32.928Z,28.87
2019-02-16T15:44:59.210Z,14.97
2019-02-16T15:47:25.486Z,15.10
2019-02-16T15:49:51.759Z,29.77
2019-02-16T15:52:18.030Z,33.97
2019-02-16T15:54:44.492Z,17.40
2019-02-16T15:57:10.812Z,15.07
2019-02-16T15:59:37.283Z,13.03
2019-02-16T16:02:03.746Z,11.63
2019-02-16T16:04:30.010Z,10.73
2019-02-16T16:06:56.389Z,9.37
2019-02-16T16:09:27.298Z,10.87
2019-02-16T16:12:07.648Z,12.70
2019-02-16T16:14:44.896Z,11.10
2019-02-16T16:17:18.834Z,15.90
2019-02-16T16:19:53.101Z,10.80
2019-02-16T16:22:21.468Z,12.40
2019-02-16T16:25:06.285Z,13.30
2019-02-16T16:27:34.464Z,11.43
2019-02-16T16:30:13.115Z,11.23
2019-02-16T16:32:44.177Z,11.50
2019-02-16T16:35:30.416Z,10.97
2019-02-16T16:38:04.579Z,10.47
2019-02-16T16:40:38.943Z,10.57
2019-02-16T16:43:13.357Z,12.50
2019-02-16T16:45:58.086Z,12.90
2019-02-16T16:48:29.009Z,10.70
2019-02-16T16:51:14.016Z,9.67
2019-02-16T16:53:57.417Z,10.00
2019-02-16T16:56:28.673Z,13.23
2019-02-16T16:59:01.539Z,10.80
2019-02-16T17:01:29.970Z,10.60
2019-02-16T17:04:01.077Z,10.33
2019-02-16T17:06:32.542Z,9.73
2019-02-16T17:09:03.448Z,10.93
2019-02-16T17:11:31.633Z,13.18
2019-02-16T17:14:12.048Z,12.82
2019-02-16T17:16:46.104Z,12.03
2019-02-16T17:19:23.518Z,12.63
2019-02-16T17:21:54.452Z,12.90
2019-02-16T17:24:22.738Z,12.73
2019-02-16T17:26:50.925Z,14.10
2019-02-16T17:29:22.134Z,13.30
2019-02-16T17:32:07.186Z,16.15
2019-02-16T17:34:38.354Z,16.95
2019-02-16T17:37:12.604Z,15.05
2019-02-16T17:39:53.053Z,20.62
2019-02-16T17:42:33.207Z,18.02
2019-02-16T17:45:07.140Z,14.60
2019-02-16T17:47:35.412Z,16.52
2019-02-16T17:50:21.908Z,18.77
2019-02-16T17:53:07.477Z,22.10
2019-02-16T17:55:50.630Z,17.92
2019-02-16T17:58:21.582Z,18.70
2019-02-16T18:00:49.866Z,20.02
2019-02-16T18:03:23.979Z,19.05
2019-02-16T18:05:54.874Z,22.85
2019-02-16T18:08:35.058Z,18.57
2019-02-16T18:11:06.190Z,18.95
2019-02-16T18:13:34.493Z,18.77
2019-02-16T18:16:05.628Z,18.23
2019-02-16T18:18:33.883Z,19.30
2019-02-16T18:21:08.022Z,15.45
2019-02-16T18:23:36.237Z,18.77
2019-02-16T18:26:04.497Z,17.02
2019-02-16T18:28:41.660Z,16.17
2019-02-16T18:31:25.015Z,16.50
2019-02-16T18:34:09.906Z,21.57
2019-02-16T18:36:56.166Z,20.20
2019-02-16T18:39:24.470Z,19.90
2019-02-16T18:41:53.194Z,20.08
2019-02-16T18:44:33.759Z,19.17
2019-02-16T18:47:04.705Z,19.75
2019-02-16T18:49:44.069Z,19.50
2019-02-16T18:52:24.904Z,19.02
2019-02-16T18:55:11.143Z,20.50
2019-02-16T18:57:56.601Z,19.65
2019-02-16T19:00:25.737Z,21.27
2019-02-16T19:03:04.311Z,21.30
2019-02-16T19:05:45.224Z,24.27
2019-02-16T19:08:15.136Z,27.42
2019-02-16T19:10:45.083Z,26.97
2019-02-16T19:13:14.952Z,23.15
2019-02-16T19:15:47.640Z,25.15
2019-02-16T19:18:31.596Z,21.05
2019-02-16T19:21:05.904Z,23.22
2019-02-16T19:23:51.094Z,21.35
2019-02-16T19:26:25.022Z,22.45
2019-02-16T19:29:05.551Z,20.50
2019-02-16T19:31:36.757Z,21.05
2019-02-16T19:34:13.731Z,21.45
2019-02-16T19:36:42.059Z,19.27
2019-02-16T19:39:25.313Z,22.55
2019-02-16T19:42:00.037Z,18.67
2019-02-16T19:44:37.613Z,21.42
2019-02-16T19:47:11.807Z,22.75
2019-02-16T19:49:40.002Z,18.92
2019-02-16T19:52:08.238Z,21.68
2019-02-16T19:54:44.259Z,21.33
2019-02-16T19:57:26.627Z,23.75
2019-02-16T20:00:05.761Z,19.70
2019-02-16T20:02:50.543Z,21.93
2019-02-16T20:05:35.341Z,22.82
2019-02-16T20:08:09.510Z,22.90
2019-02-16T20:10:49.729Z,22.05
2019-02-16T20:13:20.880Z,21.27
2019-02-16T20:15:51.792Z,23.45
2019-02-16T20:18:20.139Z,22.32
2019-02-16T20:21:05.021Z,22.60
2019-02-16T20:23:35.939Z,19.70
2019-02-16T20:26:21.016Z,22.42
2019-02-16T20:28:54.938Z,23.07
2019-02-16T20:31:29.161Z,21.17
2019-02-16T20:34:03.095Z,24.72
2019-02-16T20:36:31.381Z,23.27
2019-02-16T20:39:03.393Z,23.75
2019-02-16T20:41:31.580Z,23.75
2019-02-16T20:44:09.063Z,28.05
2019-02-16T20:46:53.940Z,23.87
2019-02-16T20:49:24.935Z,22.40
2019-02-16T20:54:45.424Z,18.20
2019-02-16T20:57:13.741Z,19.85
2019-02-16T20:59:44.940Z,17.77
2019-02-16T21:02:13.227Z,19.17
2019-02-16T21:04:41.428Z,19.25
2019-02-16T21:07:26.096Z,17.07
2019-02-16T21:10:10.902Z,16.55
2019-02-16T21:12:39.202Z,19.40
2019-02-16T21:15:13.705Z,16.97
2019-02-16T21:17:58.522Z,18.15
2019-02-16T21:20:26.757Z,21.95
2019-02-16T21:23:11.677Z,20.95
2019-02-16T21:25:48.885Z,21.82
2019-02-16T21:28:29.179Z,21.23
2019-02-16T21:31:03.429Z,22.22
2019-02-16T21:33:36.398Z,19.90
2019-02-16T21:36:04.607Z,22.87
2019-02-16T21:38:38.785Z,18.48
2019-02-16T21:41:07.100Z,24.32
2019-02-16T21:43:38.011Z,23.67
2019-02-16T21:46:22.919Z,20.12
2019-02-16T21:48:53.946Z,19.77
2019-02-16T21:51:24.866Z,22.10
2019-02-16T21:54:09.884Z,21.60
2019-02-16T21:56:40.769Z,19.95
2019-02-16T21:59:24.162Z,18.90
2019-02-16T22:01:55.244Z,17.98
2019-02-16T22:04:26.217Z,17.17
2019-02-16T22:07:19.862Z,20.40
2019-02-16T22:10:00.141Z,16.05
2019-02-16T22:12:31.489Z,18.95
2019-02-16T22:14:57.736Z,18.02
2019-02-16T22:17:24.003Z,19.17
2019-02-16T22:19:50.353Z,18.42
2019-02-16T22:22:16.840Z,21.70
2019-02-16T22:24:43.340Z,17.80
2019-02-16T22:27:09.674Z,21.60
2019-02-16T22:29:35.981Z,20.65
2019-02-16T22:32:02.459Z,21.55
2019-02-16T22:34:28.887Z,19.15
2019-02-16T22:36:55.395Z,19.52
2019-02-16T22:39:21.674Z,22.27
2019-02-16T22:41:48.099Z,22.52
2019-02-16T22:44:14.483Z,19.05
2019-02-16T22:46:40.909Z,20.15
2019-02-16T22:49:07.336Z,19.50
2019-02-16T22:51:33.626Z,20.27
2019-02-16T22:53:59.893Z,24.25
2019-02-16T22:56:26.501Z,19.98
2019-02-16T22:58:52.834Z,22.20
2019-02-16T23:01:19.521Z,18.82
2019-02-16T23:03:45.920Z,21.05
2019-02-16T23:06:12.382Z,20.27
2019-02-16T23:08:38.796Z,20.12
2019-02-16T23:11:05.277Z,19.55
2019-02-16T23:13:31.789Z,21.75
2019-02-16T23:15:58.350Z,21.62
2019-02-16T23:18:24.693Z,20.20
2019-02-16T23:20:50.953Z,18.40
2019-02-16T23:23:17.388Z,21.97
2019-02-16T23:25:43.856Z,18.23
2019-02-16T23:28:10.381Z,22.55
2019-02-16T23:30:36.770Z,22.05
2019-02-16T23:33:03.265Z,19.10
2019-02-16T23:35:29.669Z,18.62
2019-02-16T23:37:56.135Z,21.37
2019-02-16T23:40:22.393Z,19.00
2019-02-16T23:42:48.752Z,17.90
2019-02-16T23:45:15.189Z,19.70
2019-02-16T23:47:41.568Z,20.72
2019-02-16T23:50:09.554Z,21.85
2019-02-16T23:52:36.004Z,21.90
2019-02-16T23:55:05.348Z,18.57
2019-02-16T23:57:31.830Z,19.65
2019-02-16T23:59:58.088Z,21.70
